Time;durP1;ratioP1;P1;durP2;ratioP2;P2;SDS_P1;SDS_P2;PMS_P1;PMS_P2;Temp;Humidity;BMP_temperature;BMP_pressure;BME280_temperature;BME280_humidity;BME280_pressure;Samples;Min_cycle;Max_cycle;Signal;HPM_P1;HPM_P2
2023/08/05 00:00:09;;;;;;;0.40;0.40;;;16.00;99.90;;;;;;4412056;32;20082;-77
2023/08/05 00:02:34;;;;;;;0.45;0.45;;;16.00;99.90;;;;;;4407308;32;20490;-77
2023/08/05 00:05:00;;;;;;;0.88;0.40;;;16.00;99.90;;;;;;4397437;32;20074;-76
2023/08/05 00:07:25;;;;;;;0.50;0.50;;;16.10;99.90;;;;;;4398884;32;20069;-77
2023/08/05 00:09:51;;;;;;;0.52;0.47;;;16.00;99.90;;;;;;4405188;32;20073;-77
2023/08/05 00:12:16;;;;;;;0.32;0.32;;;16.00;99.90;;;;;;4413518;32;20576;-76
2023/08/05 00:14:42;;;;;;;0.30;0.30;;;15.90;99.90;;;;;;4413512;32;20066;-76
2023/08/05 00:17:07;;;;;;;0.65;0.50;;;15.90;99.90;;;;;;4413897;32;20518;-76
2023/08/05 00:19:33;;;;;;;0.40;0.40;;;16.00;99.90;;;;;;4412980;32;20069;-76
2023/08/05 00:21:58;;;;;;;0.30;0.30;;;16.00;99.90;;;;;;4413041;32;20506;-75
2023/08/05 00:24:23;;;;;;;15.05;1.02;;;16.10;99.90;;;;;;4412515;32;20170;-76
2023/08/05 00:26:49;;;;;;;0.50;0.50;;;16.10;99.90;;;;;;4413611;32;20064;-76
2023/08/05 00:29:14;;;;;;;2.17;1.08;;;16.00;99.90;;;;;;4413161;32;20061;-75
2023/08/05 00:31:40;;;;;;;0.70;0.55;;;16.00;99.90;;;;;;4412194;32;20485;-76
2023/08/05 00:34:05;;;;;;;0.35;0.35;;;16.00;99.90;;;;;;4413057;32;20090;-76
2023/08/05 00:36:31;;;;;;;0.50;0.50;;;16.00;99.90;;;;;;4413110;32;20126;-77
2023/08/05 00:38:56;;;;;;;0.40;0.40;;;15.90;99.90;;;;;;4413353;32;20073;-76
2023/08/05 00:41:22;;;;;;;0.40;0.40;;;16.00;99.90;;;;;;4412092;32;20075;-77
2023/08/05 00:43:47;;;;;;;2.55;1.27;;;15.90;99.90;;;;;;4412646;32;20526;-76
2023/08/05 00:46:14;;;;;;;0.30;0.30;;;15.80;99.90;;;;;;4413517;32;20585;-75
2023/08/05 00:48:40;;;;;;;0.40;0.40;;;15.90;99.90;;;;;;4413361;32;20077;-76
2023/08/05 00:51:07;;;;;;;0.45;0.45;;;15.70;99.90;;;;;;4412835;32;20120;-76
2023/08/05 00:53:34;;;;;;;2.72;0.70;;;15.60;99.90;;;;;;4412959;32;20077;-76
2023/08/05 00:56:00;;;;;;;0.30;0.30;;;15.60;99.90;;;;;;4413003;32;20568;-76
2023/08/05 00:58:27;;;;;;;0.50;0.50;;;15.70;99.90;;;;;;4413155;32;20078;-76
2023/08/05 01:00:53;;;;;;;0.30;0.30;;;15.70;99.90;;;;;;4412832;32;20083;-77
2023/08/05 01:03:18;;;;;;;0.30;0.30;;;15.70;99.90;;;;;;4412987;32;20065;-75
2023/08/05 01:05:46;;;;;;;0.80;0.35;;;15.80;99.90;;;;;;4412987;32;20426;-75
2023/08/05 01:08:12;;;;;;;0.30;0.30;;;15.80;99.90;;;;;;4412512;32;20082;-75
2023/08/05 01:10:38;;;;;;;0.37;0.37;;;15.80;99.90;;;;;;4412463;32;20077;-76
2023/08/05 01:13:03;;;;;;;1.25;1.00;;;15.70;99.90;;;;;;4412788;32;20069;-75
2023/08/05 01:15:29;;;;;;;3.10;1.33;;;15.60;99.90;;;;;;4413076;32;20429;-76
2023/08/05 01:17:56;;;;;;;0.37;0.37;;;15.40;99.90;;;;;;4412441;32;20086;-76
2023/08/05 01:20:27;;;;;;;2.08;1.17;;;15.30;99.90;;;;;;4411379;32;20076;-77
2023/08/05 01:22:57;;;;;;;0.45;0.45;;;15.20;99.90;;;;;;4411249;32;20126;-75
2023/08/05 01:25:27;;;;;;;1.17;0.82;;;15.20;99.90;;;;;;4411945;32;20541;-75
2023/08/05 01:27:53;;;;;;;0.30;0.30;;;15.20;99.90;;;;;;4411185;32;20122;-76
2023/08/05 01:30:22;;;;;;;0.40;0.40;;;15.20;99.90;;;;;;4411117;32;20065;-76
2023/08/05 01:32:49;;;;;;;0.30;0.30;;;15.20;99.90;;;;;;4403087;32;20066;-77
2023/08/05 01:35:15;;;;;;;0.47;0.30;;;15.20;99.90;;;;;;4410853;32;20086;-76
2023/08/05 01:37:40;;;;;;;0.40;0.40;;;15.20;99.90;;;;;;4412281;32;20082;-76
2023/08/05 01:40:06;;;;;;;0.30;0.30;;;15.20;99.90;;;;;;4410764;32;20062;-76
2023/08/05 01:42:32;;;;;;;0.40;0.40;;;15.20;99.90;;;;;;4412278;32;20506;-74
2023/08/05 01:44:57;;;;;;;0.30;0.30;;;15.30;99.90;;;;;;4412620;32;20066;-77
2023/08/05 01:47:22;;;;;;;0.30;0.30;;;15.30;99.90;;;;;;4412087;32;20623;-76
2023/08/05 01:49:48;;;;;;;0.30;0.30;;;15.30;99.90;;;;;;4412390;32;20121;-77
2023/08/05 01:52:13;;;;;;;13.77;1.62;;;15.40;99.90;;;;;;4412441;32;20065;-78
2023/08/05 01:54:39;;;;;;;0.30;0.30;;;15.40;99.90;;;;;;4412652;32;20065;-77
2023/08/05 01:57:04;;;;;;;0.35;0.35;;;15.40;99.90;;;;;;4408258;32;20419;-77
2023/08/05 01:59:30;;;;;;;0.90;0.40;;;15.50;99.90;;;;;;4412349;32;20312;-74
2023/08/05 02:01:55;;;;;;;0.25;0.25;;;15.40;99.90;;;;;;4412352;32;20073;-76
2023/08/05 02:04:21;;;;;;;0.50;0.50;;;15.40;99.90;;;;;;4411191;32;20073;-75
2023/08/05 02:06:46;;;;;;;0.40;0.40;;;15.30;99.90;;;;;;4411201;32;20177;-75
2023/08/05 02:09:12;;;;;;;0.20;0.20;;;15.30;99.90;;;;;;4412749;32;20530;-75
2023/08/05 02:11:37;;;;;;;0.60;0.60;;;15.40;99.90;;;;;;4408889;32;20078;-76
2023/08/05 02:14:03;;;;;;;0.30;0.30;;;15.40;99.90;;;;;;4397753;32;20514;-74
2023/08/05 02:16:28;;;;;;;0.20;0.20;;;15.40;99.90;;;;;;4399051;32;20085;-75
2023/08/05 02:18:54;;;;;;;0.40;0.40;;;15.40;99.90;;;;;;4398057;32;20118;-75
2023/08/05 02:21:21;;;;;;;0.20;0.20;;;15.50;99.90;;;;;;4411575;32;20069;-75
2023/08/05 02:23:46;;;;;;;0.30;0.30;;;15.30;99.90;;;;;;4414484;32;20078;-74
2023/08/05 02:26:11;;;;;;;1.35;1.10;;;15.30;99.90;;;;;;4415032;32;20082;-75
2023/08/05 02:28:37;;;;;;;0.55;0.43;;;15.30;99.90;;;;;;4414356;32;20121;-75
2023/08/05 02:31:03;;;;;;;0.30;0.30;;;15.30;99.90;;;;;;4414572;32;20066;-75
2023/08/05 02:33:28;;;;;;;0.30;0.30;;;15.20;99.90;;;;;;4415468;32;20078;-75
2023/08/05 02:36:01;;;;;;;0.30;0.30;;;15.20;99.90;;;;;;4414754;32;20077;-75
2023/08/05 02:38:27;;;;;;;0.85;0.80;;;15.20;99.90;;;;;;4414569;32;20082;-75
2023/08/05 02:40:53;;;;;;;0.30;0.30;;;15.20;99.90;;;;;;4414811;32;20128;-75
2023/08/05 02:43:19;;;;;;;0.25;0.25;;;15.20;99.90;;;;;;4414638;32;20525;-75
2023/08/05 02:45:44;;;;;;;0.30;0.30;;;15.20;99.90;;;;;;4415174;32;20497;-75
2023/08/05 02:48:10;;;;;;;0.88;0.40;;;15.20;99.90;;;;;;4415623;32;20115;-75
2023/08/05 02:50:35;;;;;;;0.20;0.20;;;15.20;99.90;;;;;;4409062;32;20069;-76
2023/08/05 02:53:01;;;;;;;0.65;0.60;;;15.20;99.90;;;;;;4408057;32;20424;-75
2023/08/05 02:55:27;;;;;;;0.37;0.32;;;15.20;99.90;;;;;;4404630;32;20082;-76
2023/08/05 02:57:53;;;;;;;0.55;0.55;;;15.10;99.90;;;;;;4399770;32;20080;-74
2023/08/05 03:00:18;;;;;;;0.30;0.30;;;15.10;99.90;;;;;;4414275;32;20080;-75
2023/08/05 03:02:44;;;;;;;0.40;0.40;;;15.10;99.90;;;;;;4414464;32;20062;-74
2023/08/05 03:05:09;;;;;;;0.37;0.37;;;15.10;99.90;;;;;;4414691;32;20385;-76
2023/08/05 03:07:35;;;;;;;0.40;0.40;;;15.20;99.90;;;;;;4414944;32;20070;-75
2023/08/05 03:10:00;;;;;;;0.30;0.30;;;15.10;99.90;;;;;;4414801;32;20510;-74
2023/08/05 03:12:26;;;;;;;0.50;0.40;;;15.10;99.90;;;;;;4417549;32;20540;-75
2023/08/05 03:14:51;;;;;;;0.30;0.30;;;15.10;99.90;;;;;;4414338;32;20065;-74
2023/08/05 03:17:17;;;;;;;0.32;0.32;;;15.10;99.90;;;;;;4415250;32;20062;-74
2023/08/05 03:19:42;;;;;;;0.35;0.35;;;15.00;99.90;;;;;;4414287;32;20439;-75
2023/08/05 03:22:08;;;;;;;0.30;0.30;;;15.10;99.90;;;;;;4412211;32;20070;-75
2023/08/05 03:24:33;;;;;;;0.70;0.35;;;15.00;99.90;;;;;;4414958;32;20066;-77
2023/08/05 03:26:59;;;;;;;0.30;0.30;;;15.10;99.90;;;;;;4414911;32;20065;-75
2023/08/05 03:29:24;;;;;;;0.50;0.50;;;15.00;99.90;;;;;;4414107;32;20066;-76
2023/08/05 03:31:50;;;;;;;1.10;0.60;;;14.90;99.90;;;;;;4413023;32;20069;-74
2023/08/05 03:34:17;;;;;;;0.40;0.40;;;14.90;99.90;;;;;;4413606;32;20487;-75
2023/08/05 03:36:43;;;;;;;0.50;0.30;;;14.90;99.90;;;;;;4414176;32;20090;-75
2023/08/05 03:39:08;;;;;;;0.65;0.35;;;15.00;99.90;;;;;;4414037;32;20569;-75
2023/08/05 03:41:34;;;;;;;0.30;0.30;;;14.90;99.90;;;;;;4413965;32;20078;-76
2023/08/05 03:44:01;;;;;;;0.30;0.30;;;14.80;99.90;;;;;;4413957;32;20083;-75
2023/08/05 03:46:28;;;;;;;0.30;0.30;;;14.80;99.90;;;;;;4414433;32;20424;-75
2023/08/05 03:48:53;;;;;;;0.37;0.37;;;14.70;99.90;;;;;;4412008;32;20082;-75
2023/08/05 03:51:19;;;;;;;0.37;0.37;;;14.70;99.90;;;;;;4414318;32;20069;-77
2023/08/05 03:53:44;;;;;;;0.30;0.30;;;14.80;99.90;;;;;;4413356;32;20454;-76
2023/08/05 03:56:10;;;;;;;0.85;0.85;;;14.70;99.90;;;;;;4413815;32;20074;-75
2023/08/05 03:58:35;;;;;;;0.32;0.32;;;14.70;99.90;;;;;;4411755;32;20513;-76
2023/08/05 04:01:01;;;;;;;0.47;0.47;;;14.70;99.90;;;;;;4412959;32;20090;-75
2023/08/05 04:03:28;;;;;;;1.95;0.65;;;14.70;99.90;;;;;;4413080;32;20402;-76
2023/08/05 04:05:54;;;;;;;0.70;0.35;;;14.80;99.90;;;;;;4414256;32;20069;-77
2023/08/05 04:08:20;;;;;;;4.62;1.58;;;14.70;99.90;;;;;;4413636;32;20092;-76
2023/08/05 04:10:46;;;;;;;6.32;1.67;;;14.80;99.90;;;;;;4415283;32;20431;-76
2023/08/05 04:13:11;;;;;;;0.30;0.30;;;14.80;99.90;;;;;;4413213;32;20057;-75
2023/08/05 04:15:38;;;;;;;0.30;0.30;;;14.90;99.90;;;;;;4414135;32;20074;-76
2023/08/05 04:18:04;;;;;;;0.40;0.40;;;14.90;99.90;;;;;;4414160;32;20074;-77
2023/08/05 04:20:30;;;;;;;0.40;0.40;;;14.90;99.90;;;;;;4413615;32;20074;-75
2023/08/05 04:22:56;;;;;;;0.30;0.30;;;14.80;99.90;;;;;;4414854;32;20564;-75
2023/08/05 04:25:22;;;;;;;0.30;0.30;;;14.90;99.90;;;;;;4413831;32;20078;-75
2023/08/05 04:27:47;;;;;;;0.95;0.82;;;14.90;99.90;;;;;;4413475;32;20062;-75
2023/08/05 04:30:13;;;;;;;0.40;0.40;;;15.00;99.90;;;;;;4414550;32;20415;-75
2023/08/05 04:32:39;;;;;;;0.57;0.30;;;15.10;99.90;;;;;;4412945;32;20078;-75
2023/08/05 04:35:05;;;;;;;0.30;0.30;;;15.10;99.90;;;;;;4411526;32;20541;-74
2023/08/05 04:37:31;;;;;;;0.40;0.40;;;15.10;99.90;;;;;;4413902;32;20086;-75
2023/08/05 04:39:56;;;;;;;0.50;0.50;;;15.10;99.90;;;;;;4414746;32;20062;-75
2023/08/05 04:42:22;;;;;;;0.20;0.20;;;15.10;99.90;;;;;;4413115;32;20065;-75
2023/08/05 04:44:48;;;;;;;0.88;0.88;;;15.10;99.90;;;;;;4412910;32;20517;-76
2023/08/05 04:47:13;;;;;;;0.40;0.40;;;15.20;99.90;;;;;;4413744;32;20129;-75
2023/08/05 04:49:42;;;;;;;0.40;0.40;;;15.20;99.90;;;;;;4401708;32;20065;-74
2023/08/05 04:52:08;;;;;;;0.50;0.50;;;15.30;99.90;;;;;;4412576;32;20062;-75
2023/08/05 04:54:43;;;;;;;0.75;0.68;;;15.40;99.90;;;;;;4415912;32;20083;-75
2023/08/05 04:57:09;;;;;;;0.30;0.30;;;15.40;99.90;;;;;;4412611;32;20462;-76
2023/08/05 04:59:34;;;;;;;0.40;0.40;;;15.30;99.90;;;;;;4413588;32;20069;-78
2023/08/05 05:02:00;;;;;;;2.47;1.42;;;15.40;99.90;;;;;;4414248;32;20081;-77
2023/08/05 05:04:25;;;;;;;0.40;0.40;;;15.50;99.90;;;;;;4413597;32;20819;-77
2023/08/05 05:06:51;;;;;;;0.40;0.40;;;15.50;99.90;;;;;;4412923;32;20116;-78
2023/08/05 05:09:16;;;;;;;0.50;0.50;;;15.60;99.90;;;;;;4412108;32;20077;-75
2023/08/05 05:11:42;;;;;;;0.50;0.50;;;15.60;99.90;;;;;;4413173;32;20082;-75
2023/08/05 05:14:07;;;;;;;0.40;0.40;;;15.70;99.90;;;;;;4413424;32;20385;-75
2023/08/05 05:16:33;;;;;;;0.50;0.50;;;15.70;99.90;;;;;;4413845;32;20475;-75
2023/08/05 05:18:58;;;;;;;0.62;0.40;;;15.80;99.90;;;;;;4413238;32;20112;-76
2023/08/05 05:21:24;;;;;;;0.70;0.70;;;15.90;99.90;;;;;;4413004;32;20066;-75
2023/08/05 05:23:49;;;;;;;0.30;0.30;;;15.90;99.90;;;;;;4413296;32;20355;-75
2023/08/05 05:26:15;;;;;;;0.50;0.50;;;15.90;99.90;;;;;;4414194;32;20125;-76
2023/08/05 05:28:40;;;;;;;0.75;0.62;;;16.00;99.90;;;;;;4412574;32;20124;-76
2023/08/05 05:31:06;;;;;;;0.28;0.28;;;16.00;99.90;;;;;;4413122;32;20081;-76
2023/08/05 05:33:31;;;;;;;0.45;0.45;;;16.10;99.90;;;;;;4412951;32;20071;-76
2023/08/05 05:35:57;;;;;;;0.60;0.60;;;16.00;99.90;;;;;;4412846;32;20121;-75
2023/08/05 05:38:22;;;;;;;0.30;0.30;;;16.00;99.90;;;;;;4412894;32;20094;-76
2023/08/05 05:40:48;;;;;;;0.50;0.50;;;16.10;99.90;;;;;;4413179;32;20069;-76
2023/08/05 05:43:13;;;;;;;1.67;1.58;;;16.10;99.90;;;;;;4413663;32;20062;-75
2023/08/05 05:45:39;;;;;;;0.50;0.50;;;16.20;99.90;;;;;;4413325;32;20078;-75
2023/08/05 05:48:05;;;;;;;0.90;0.75;;;16.20;99.90;;;;;;4413033;32;20083;-76
2023/08/05 05:50:31;;;;;;;0.50;0.50;;;16.20;99.90;;;;;;4413157;32;20494;-76
2023/08/05 05:52:56;;;;;;;0.43;0.43;;;16.30;99.90;;;;;;4413460;32;20062;-76
2023/08/05 05:55:22;;;;;;;10.45;1.37;;;16.40;99.90;;;;;;4415756;32;20070;-75
2023/08/05 05:57:48;;;;;;;0.30;0.30;;;16.50;99.90;;;;;;4416527;32;20062;-76
2023/08/05 06:00:14;;;;;;;1.55;0.40;;;16.60;99.90;;;;;;4415691;32;20073;-76
2023/08/05 06:02:40;;;;;;;0.30;0.30;;;16.70;99.90;;;;;;4413136;32;20078;-76
2023/08/05 06:05:07;;;;;;;0.37;0.37;;;16.80;99.90;;;;;;4401087;32;20066;-76
2023/08/05 06:07:32;;;;;;;0.85;0.85;;;16.90;99.90;;;;;;4400656;32;20352;-76
2023/08/05 06:09:57;;;;;;;0.30;0.30;;;16.90;99.90;;;;;;4402236;32;20086;-75
2023/08/05 06:12:27;;;;;;;0.37;0.37;;;17.00;99.90;;;;;;4401334;32;20074;-75
2023/08/05 06:14:53;;;;;;;0.50;0.50;;;17.10;99.90;;;;;;4414142;32;20070;-75
2023/08/05 06:17:18;;;;;;;0.30;0.30;;;17.20;99.90;;;;;;4415258;32;20085;-76
2023/08/05 06:19:44;;;;;;;1.17;0.47;;;17.20;99.90;;;;;;4416466;32;20057;-76
2023/08/05 06:22:09;;;;;;;0.32;0.32;;;17.20;99.90;;;;;;4417191;32;20451;-75
2023/08/05 06:24:35;;;;;;;0.45;0.45;;;17.30;99.90;;;;;;4416143;32;20058;-75
2023/08/05 06:27:00;;;;;;;0.50;0.50;;;17.30;99.90;;;;;;4414934;32;20085;-76
2023/08/05 06:29:26;;;;;;;0.50;0.50;;;17.30;99.90;;;;;;4414348;32;20608;-76
2023/08/05 06:31:52;;;;;;;0.40;0.40;;;17.30;99.90;;;;;;4414874;32;20085;-76
2023/08/05 06:34:20;;;;;;;0.57;0.57;;;17.30;99.90;;;;;;4413869;32;20062;-76
2023/08/05 06:36:45;;;;;;;0.30;0.30;;;17.40;99.90;;;;;;4415874;32;20392;-76
2023/08/05 06:39:11;;;;;;;0.32;0.32;;;17.50;99.90;;;;;;4415568;32;20124;-76
2023/08/05 06:41:36;;;;;;;1.08;0.50;;;17.50;99.90;;;;;;4415730;32;20436;-76
2023/08/05 06:44:02;;;;;;;2.78;0.68;;;17.60;99.90;;;;;;4415907;32;20069;-76
2023/08/05 06:46:27;;;;;;;0.45;0.40;;;17.60;99.90;;;;;;4414930;32;20423;-75
2023/08/05 06:48:53;;;;;;;0.32;0.32;;;17.80;99.90;;;;;;4417202;32;20141;-76
2023/08/05 06:51:18;;;;;;;0.25;0.25;;;17.80;99.90;;;;;;4416767;32;20081;-76
2023/08/05 06:53:44;;;;;;;1.08;0.60;;;17.80;99.90;;;;;;4416572;32;20126;-75
2023/08/05 06:56:10;;;;;;;0.43;0.43;;;17.80;99.90;;;;;;4416826;32;20082;-76
2023/08/05 06:58:35;;;;;;;0.40;0.40;;;17.70;99.90;;;;;;4417301;32;20073;-76
2023/08/05 07:01:01;;;;;;;0.30;0.30;;;17.80;99.90;;;;;;4416982;32;20062;-75
2023/08/05 07:03:26;;;;;;;0.30;0.30;;;17.80;99.90;;;;;;4417466;32;20077;-75
2023/08/05 07:05:55;;;;;;;8.02;0.52;;;17.80;99.90;;;;;;4417246;32;20058;-76
2023/08/05 07:08:22;;;;;;;0.30;0.30;;;17.90;99.90;;;;;;4416540;32;20082;-75
2023/08/05 07:10:56;;;;;;;0.55;0.55;;;17.90;99.90;;;;;;4418296;32;20437;-75
2023/08/05 07:13:22;;;;;;;0.75;0.52;;;17.90;99.90;;;;;;4417195;32;20077;-76
2023/08/05 07:15:48;;;;;;;1.35;0.60;;;18.00;99.90;;;;;;4414443;32;20070;-76
2023/08/05 07:18:13;;;;;;;0.57;0.57;;;18.00;99.90;;;;;;4416355;32;20066;-76
2023/08/05 07:20:40;;;;;;;0.30;0.30;;;18.00;99.90;;;;;;4416218;32;20078;-76
2023/08/05 07:23:06;;;;;;;0.30;0.30;;;18.00;99.90;;;;;;4415256;32;20077;-75
2023/08/05 07:25:31;;;;;;;0.40;0.40;;;18.10;99.90;;;;;;4414517;32;20124;-75
2023/08/05 07:27:57;;;;;;;0.40;0.40;;;18.10;99.90;;;;;;4415411;32;20085;-76
2023/08/05 07:30:22;;;;;;;0.35;0.35;;;18.10;99.90;;;;;;4413913;32;20082;-77
2023/08/05 07:32:48;;;;;;;0.30;0.30;;;18.10;99.90;;;;;;4413949;32;20085;-75
2023/08/05 07:35:14;;;;;;;2.30;0.82;;;18.20;99.90;;;;;;4413985;32;20078;-75
2023/08/05 07:37:42;;;;;;;3.00;1.00;;;18.20;99.90;;;;;;4415016;32;20078;-76
2023/08/05 07:40:12;;;;;;;0.35;0.35;;;18.20;99.90;;;;;;4415200;32;20578;-77
2023/08/05 07:42:38;;;;;;;0.77;0.77;;;18.30;99.90;;;;;;4414353;32;20065;-75
2023/08/05 07:45:07;;;;;;;3.25;1.60;;;18.30;99.90;;;;;;4414167;32;20061;-76
2023/08/05 07:47:39;;;;;;;0.40;0.40;;;18.30;99.90;;;;;;4415838;32;20116;-76
2023/08/05 07:50:06;;;;;;;1.48;0.85;;;18.40;99.90;;;;;;4414609;32;20077;-76
2023/08/05 07:52:32;;;;;;;0.30;0.30;;;18.30;99.90;;;;;;4414626;32;20070;-76
2023/08/05 07:54:58;;;;;;;0.62;0.47;;;18.30;99.90;;;;;;4414915;32;20075;-77
2023/08/05 07:57:24;;;;;;;0.30;0.30;;;18.30;99.90;;;;;;4414226;32;20125;-76
2023/08/05 07:59:51;;;;;;;1.73;1.10;;;18.30;99.90;;;;;;4414759;32;20081;-75
2023/08/05 08:02:17;;;;;;;0.30;0.30;;;18.40;99.90;;;;;;4414417;32;20090;-76
2023/08/05 08:04:44;;;;;;;0.40;0.40;;;18.50;99.90;;;;;;4415080;32;20058;-76
2023/08/05 08:07:10;;;;;;;3.35;0.88;;;18.50;99.90;;;;;;4416942;32;20069;-77
2023/08/05 08:09:35;;;;;;;0.50;0.50;;;18.50;99.90;;;;;;4416396;32;20066;-76
2023/08/05 08:12:01;;;;;;;1.17;0.50;;;18.50;99.90;;;;;;4413744;32;20513;-76
2023/08/05 08:14:26;;;;;;;0.30;0.30;;;18.60;99.90;;;;;;4413924;32;20518;-76
2023/08/05 08:16:52;;;;;;;0.30;0.30;;;18.60;99.90;;;;;;4404915;32;20494;-76
2023/08/05 08:19:18;;;;;;;0.40;0.40;;;18.70;99.90;;;;;;4409541;32;20120;-76
2023/08/05 08:21:45;;;;;;;24.02;1.08;;;18.80;99.90;;;;;;4413302;32;20124;-75
2023/08/05 08:24:10;;;;;;;0.40;0.40;;;18.90;99.90;;;;;;4413490;32;20083;-75
2023/08/05 08:26:36;;;;;;;0.40;0.40;;;18.90;99.90;;;;;;4414031;32;20165;-76
2023/08/05 08:29:02;;;;;;;0.35;0.35;;;19.10;99.90;;;;;;4412612;32;20517;-75
2023/08/05 08:31:30;;;;;;;0.30;0.30;;;19.20;99.90;;;;;;4413208;32;20073;-75
2023/08/05 08:33:56;;;;;;;0.73;0.68;;;19.30;99.90;;;;;;4414439;32;20077;-75
2023/08/05 08:36:22;;;;;;;0.30;0.30;;;19.40;99.90;;;;;;4414684;32;20101;-76
2023/08/05 08:38:47;;;;;;;0.30;0.30;;;19.40;99.90;;;;;;4414256;32;20451;-75
2023/08/05 08:41:12;;;;;;;0.73;0.52;;;19.40;99.90;;;;;;4414517;32;20086;-76
2023/08/05 08:43:39;;;;;;;0.32;0.32;;;19.30;99.90;;;;;;4415300;32;20121;-77
2023/08/05 08:46:05;;;;;;;0.98;0.62;;;19.40;99.90;;;;;;4413178;32;20070;-76
2023/08/05 08:48:36;;;;;;;0.20;0.20;;;19.50;99.90;;;;;;4413429;32;20090;-76
2023/08/05 08:51:03;;;;;;;0.30;0.30;;;19.80;99.90;;;;;;4415131;32;20065;-76
2023/08/05 08:53:31;;;;;;;0.30;0.30;;;20.00;99.90;;;;;;4413877;32;20079;-75
2023/08/05 08:55:56;;;;;;;14.70;0.45;;;20.20;99.90;;;;;;4413463;32;20818;-76
2023/08/05 08:58:22;;;;;;;0.20;0.20;;;20.40;99.90;;;;;;4412438;32;20117;-76
2023/08/05 09:00:49;;;;;;;0.20;0.20;;;20.60;99.90;;;;;;4413230;32;20228;-75
2023/08/05 09:03:17;;;;;;;0.30;0.30;;;20.60;99.90;;;;;;4414395;32;20140;-76
2023/08/05 09:05:49;;;;;;;0.35;0.35;;;20.60;99.90;;;;;;4414125;32;20066;-76
2023/08/05 09:08:15;;;;;;;0.32;0.32;;;20.70;99.90;;;;;;4415351;32;20112;-75
2023/08/05 09:10:42;;;;;;;1.55;0.52;;;20.80;99.90;;;;;;4413774;32;20487;-76
2023/08/05 09:13:08;;;;;;;0.20;0.20;;;20.60;99.90;;;;;;4413366;32;20082;-76
2023/08/05 09:15:36;;;;;;;0.30;0.30;;;20.50;99.90;;;;;;4413549;32;20506;-75
2023/08/05 09:18:03;;;;;;;0.75;0.40;;;20.40;99.90;;;;;;4412947;32;20061;-75
2023/08/05 09:20:31;;;;;;;0.30;0.30;;;20.30;99.90;;;;;;4409365;32;20617;-76
2023/08/05 09:23:01;;;;;;;0.20;0.20;;;20.40;99.90;;;;;;4402837;32;20420;-76
2023/08/05 09:25:29;;;;;;;0.75;0.75;;;20.50;99.90;;;;;;4414449;32;20125;-75
2023/08/05 09:27:56;;;;;;;0.20;0.20;;;20.40;99.90;;;;;;4413936;32;20093;-75
2023/08/05 09:30:23;;;;;;;0.30;0.30;;;20.50;99.90;;;;;;4422840;32;20145;-74
2023/08/05 09:32:49;;;;;;;10.15;0.32;;;20.50;99.90;;;;;;4405534;32;20078;-75
2023/08/05 09:35:16;;;;;;;0.30;0.30;;;20.40;99.90;;;;;;4404582;32;20066;-77
2023/08/05 09:37:51;;;;;;;0.30;0.30;;;20.40;99.90;;;;;;4418228;32;20065;-76
2023/08/05 09:40:25;;;;;;;0.50;0.50;;;20.30;99.90;;;;;;4419890;32;20094;-75
2023/08/05 09:42:57;;;;;;;3.37;0.98;;;20.50;99.90;;;;;;4420065;32;20079;-75
2023/08/05 09:45:25;;;;;;;0.20;0.20;;;20.40;99.90;;;;;;4419056;32;20122;-75
2023/08/05 09:48:00;;;;;;;0.28;0.28;;;20.40;99.90;;;;;;4418292;32;20444;-76
2023/08/05 09:50:27;;;;;;;0.30;0.30;;;20.50;99.90;;;;;;4415975;32;20082;-76
2023/08/05 09:52:56;;;;;;;1.37;0.30;;;20.60;99.90;;;;;;4418554;32;20062;-76
2023/08/05 09:55:22;;;;;;;0.65;0.65;;;20.70;99.90;;;;;;4417147;32;20093;-76
2023/08/05 09:57:48;;;;;;;1.27;0.43;;;20.60;99.90;;;;;;4418652;32;20413;-76
2023/08/05 10:00:15;;;;;;;0.30;0.30;;;20.60;99.90;;;;;;4417612;32;20066;-76
2023/08/05 10:02:43;;;;;;;0.30;0.30;;;20.60;99.90;;;;;;4406731;32;20062;-76
2023/08/05 10:05:10;;;;;;;0.35;0.35;;;20.70;99.90;;;;;;4401381;32;20425;-76
2023/08/05 10:07:40;;;;;;;0.40;0.40;;;20.70;99.90;;;;;;4416177;32;20062;-76
2023/08/05 10:10:11;;;;;;;1.00;0.60;;;20.80;99.90;;;;;;4416480;32;20118;-76
2023/08/05 10:12:43;;;;;;;2.20;0.73;;;21.00;99.90;;;;;;4415213;32;20066;-76
2023/08/05 10:15:13;;;;;;;0.28;0.28;;;21.10;99.90;;;;;;4414740;32;20074;-76
2023/08/05 10:17:42;;;;;;;0.32;0.32;;;21.20;99.90;;;;;;4415440;32;20070;-76
2023/08/05 10:20:12;;;;;;;0.20;0.20;;;21.10;99.90;;;;;;4416679;32;20458;-76
2023/08/05 10:22:39;;;;;;;0.30;0.30;;;21.20;99.90;;;;;;4416030;32;20225;-75
2023/08/05 10:25:06;;;;;;;0.30;0.30;;;21.20;99.90;;;;;;4416115;32;20159;-76
2023/08/05 10:27:36;;;;;;;0.30;0.30;;;21.20;99.90;;;;;;4416254;32;20066;-75
2023/08/05 10:30:12;;;;;;;0.30;0.30;;;21.30;99.90;;;;;;4403823;32;20456;-76
2023/08/05 10:32:49;;;;;;;0.40;0.40;;;21.40;99.90;;;;;;4407710;32;20065;-77
2023/08/05 10:35:28;;;;;;;0.20;0.20;;;21.50;99.90;;;;;;4401389;32;20083;-76
2023/08/05 10:38:13;;;;;;;0.60;0.60;;;21.50;99.90;;;;;;4402117;32;20090;-76
2023/08/05 10:40:41;;;;;;;0.60;0.60;;;21.30;99.90;;;;;;4401368;32;20577;-78
2023/08/05 10:43:07;;;;;;;0.30;0.30;;;21.10;99.90;;;;;;4417594;32;20426;-76
2023/08/05 10:45:33;;;;;;;0.20;0.20;;;21.00;99.90;;;;;;4415761;32;20063;-77
2023/08/05 10:47:59;;;;;;;0.30;0.30;;;21.00;99.90;;;;;;4415170;32;20093;-78
2023/08/05 10:50:34;;;;;;;0.20;0.20;;;20.90;99.90;;;;;;4414930;32;20096;-77
2023/08/05 10:53:04;;;;;;;0.30;0.30;;;20.90;99.90;;;;;;4416378;32;20423;-76
2023/08/05 10:55:30;;;;;;;0.30;0.30;;;21.00;99.90;;;;;;4415718;32;20077;-76
2023/08/05 10:57:55;;;;;;;0.32;0.32;;;20.90;99.90;;;;;;4417526;32;20073;-77
2023/08/05 11:00:22;;;;;;;0.32;0.32;;;20.80;99.90;;;;;;4415468;32;20073;-78
2023/08/05 11:02:49;;;;;;;0.43;0.43;;;20.90;99.90;;;;;;4415239;32;20058;-78
2023/08/05 11:05:16;;;;;;;1.48;0.52;;;21.10;99.90;;;;;;4415196;32;20065;-77
2023/08/05 11:07:42;;;;;;;0.32;0.32;;;21.10;99.90;;;;;;4418438;32;20101;-76
2023/08/05 11:10:09;;;;;;;0.40;0.40;;;21.20;99.90;;;;;;4417335;32;20061;-77
2023/08/05 11:12:38;;;;;;;0.40;0.40;;;21.30;99.90;;;;;;4417261;32;20139;-77
2023/08/05 11:15:04;;;;;;;0.50;0.50;;;21.40;99.90;;;;;;4418761;32;20066;-76
2023/08/05 11:17:29;;;;;;;0.10;0.10;;;21.60;99.90;;;;;;4416530;32;20078;-77
2023/08/05 11:19:57;;;;;;;0.52;0.52;;;21.70;99.90;;;;;;4417379;32;20078;-76
2023/08/05 11:22:25;;;;;;;0.20;0.20;;;21.80;99.90;;;;;;4415000;32;20062;-77
2023/08/05 11:25:03;;;;;;;0.20;0.20;;;21.80;99.90;;;;;;4415088;32;20078;-77
2023/08/05 11:27:31;;;;;;;0.35;0.35;;;21.90;99.90;;;;;;4415565;32;20396;-78
2023/08/05 11:29:56;;;;;;;0.85;0.37;;;21.90;99.90;;;;;;4415262;32;20169;-76
2023/08/05 11:32:22;;;;;;;0.30;0.30;;;22.20;99.90;;;;;;4410684;32;20074;-77
2023/08/05 11:34:49;;;;;;;0.28;0.28;;;22.10;99.90;;;;;;4402871;32;20074;-74
2023/08/05 11:37:14;;;;;;;0.20;0.20;;;21.90;99.90;;;;;;4413829;32;20069;-75
2023/08/05 11:39:40;;;;;;;0.30;0.30;;;21.80;99.90;;;;;;4415136;32;20057;-75
2023/08/05 11:42:06;;;;;;;0.10;0.10;;;21.70;99.90;;;;;;4416080;32;20552;-76
2023/08/05 11:44:32;;;;;;;0.20;0.20;;;21.80;99.90;;;;;;4414491;32;20077;-75
2023/08/05 11:47:03;;;;;;;0.75;0.57;;;21.90;99.90;;;;;;4396815;32;586560;-75
2023/08/05 11:49:28;;;;;;;0.50;0.28;;;22.00;99.90;;;;;;4416313;32;20085;-76
2023/08/05 11:51:54;;;;;;;0.10;0.10;;;22.10;99.90;;;;;;4415089;32;20120;-76
2023/08/05 11:54:25;;;;;;;0.30;0.30;;;22.30;99.90;;;;;;4414135;32;20094;-77
2023/08/05 11:56:50;;;;;;;0.20;0.20;;;22.40;99.90;;;;;;4415095;32;20079;-76
2023/08/05 11:59:16;;;;;;;0.20;0.20;;;22.50;99.90;;;;;;4416605;32;20538;-75
2023/08/05 12:01:41;;;;;;;16.10;0.55;;;22.60;99.90;;;;;;4417414;32;20082;-76
2023/08/05 12:04:08;;;;;;;1.55;0.73;;;22.50;99.90;;;;;;4419567;32;20094;-76
2023/08/05 12:06:33;;;;;;;0.20;0.20;;;22.30;99.90;;;;;;4416273;32;20074;-77
2023/08/05 12:09:00;;;;;;;0.50;0.50;;;22.30;99.90;;;;;;4416574;32;20517;-77
2023/08/05 12:11:25;;;;;;;0.20;0.20;;;22.40;99.90;;;;;;4415096;32;20053;-76
2023/08/05 12:13:51;;;;;;;0.30;0.30;;;22.30;99.90;;;;;;4414535;32;20086;-76
2023/08/05 12:16:17;;;;;;;0.43;0.37;;;22.60;99.90;;;;;;4414694;32;20113;-76
2023/08/05 12:18:45;;;;;;;1.12;0.82;;;22.70;99.90;;;;;;4415199;32;20077;-77
2023/08/05 12:21:12;;;;;;;0.20;0.20;;;22.80;99.90;;;;;;4415447;32;20132;-76
2023/08/05 12:23:41;;;;;;;0.20;0.20;;;22.90;99.90;;;;;;4418607;32;20066;-76
2023/08/05 12:26:09;;;;;;;0.20;0.20;;;22.80;99.90;;;;;;4415525;32;20090;-76
2023/08/05 12:28:34;;;;;;;0.20;0.20;;;22.60;99.90;;;;;;4414307;32;20105;-76
2023/08/05 12:31:00;;;;;;;0.20;0.20;;;22.40;99.90;;;;;;4403623;32;20463;-76
2023/08/05 12:33:26;;;;;;;0.20;0.20;;;22.30;99.90;;;;;;4414871;32;20588;-75
2023/08/05 12:35:53;;;;;;;0.20;0.20;;;22.10;99.90;;;;;;4415374;32;20118;-76
2023/08/05 12:38:18;;;;;;;0.55;0.55;;;22.10;99.90;;;;;;4409048;32;20066;-75
2023/08/05 12:40:44;;;;;;;0.30;0.30;;;22.00;99.90;;;;;;4404805;32;20604;-75